Metar z pełnej godziny Komunikat METAR ze strony awiacja.imgw.pl Metar G00 EPLB METAR EPLB 200200Z 13002KT CAVOK 17/16 Q1017 =